sensor_id;sensor_type;location;lat;lon;timestamp;temperature;humidity
32107;DHT22;18622;51.998;10.440;2023-02-21T03:46:35;9.90;99.90
32107;DHT22;18622;51.998;10.440;2023-02-21T03:49:03;10.00;99.90
32107;DHT22;18622;51.998;10.440;2023-02-21T03:51:31;10.00;99.90
32107;DHT22;18622;51.998;10.440;2023-02-21T03:53:59;10.00;99.90
32107;DHT22;18622;51.998;10.440;2023-02-21T03:56:26;10.10;99.90
32107;DHT22;18622;51.998;10.440;2023-02-21T03:58:54;10.10;99.90
32107;DHT22;18622;51.998;10.440;2023-02-21T04:01:22;10.10;99.90
32107;DHT22;18622;51.998;10.440;2023-02-21T04:03:50;10.10;99.90
32107;DHT22;18622;51.998;10.440;2023-02-21T04:06:18;10.10;99.90
32107;DHT22;18622;51.998;10.440;2023-02-21T04:08:46;10.20;99.90
32107;DHT22;18622;51.998;10.440;2023-02-21T04:11:20;10.20;99.90
32107;DHT22;18622;51.998;10.440;2023-02-21T04:13:48;10.10;99.90
32107;DHT22;18622;51.998;10.440;2023-02-21T04:16:15;10.10;99.90
32107;DHT22;18622;51.998;10.440;2023-02-21T04:18:43;10.10;99.90
32107;DHT22;18622;51.998;10.440;2023-02-21T04:21:16;10.10;99.90
32107;DHT22;18622;51.998;10.440;2023-02-21T04:23:43;10.10;99.90
32107;DHT22;18622;51.998;10.440;2023-02-21T04:26:11;10.10;99.90
32107;DHT22;18622;51.998;10.440;2023-02-21T04:28:39;10.10;99.90
32107;DHT22;18622;51.998;10.440;2023-02-21T04:31:07;10.10;99.90
32107;DHT22;18622;51.998;10.440;2023-02-21T04:33:35;10.10;99.90
32107;DHT22;18622;51.998;10.440;2023-02-21T04:36:02;10.10;99.90
32107;DHT22;18622;51.998;10.440;2023-02-21T04:38:30;10.20;99.90
32107;DHT22;18622;51.998;10.440;2023-02-21T04:40:58;10.20;99.90
32107;DHT22;18622;51.998;10.440;2023-02-21T04:43:26;10.20;99.90
32107;DHT22;18622;51.998;10.440;2023-02-21T04:45:54;10.30;99.90
32107;DHT22;18622;51.998;10.440;2023-02-21T04:48:22;10.30;99.90
32107;DHT22;18622;51.998;10.440;2023-02-21T04:50:50;10.30;99.90
32107;DHT22;18622;51.998;10.440;2023-02-21T04:53:18;10.30;99.90
32107;DHT22;18622;51.998;10.440;2023-02-21T04:55:45;10.20;99.90
32107;DHT22;18622;51.998;10.440;2023-02-21T04:58:13;10.20;99.90
32107;DHT22;18622;51.998;10.440;2023-02-21T05:00:41;10.10;99.90
32107;DHT22;18622;51.998;10.440;2023-02-21T05:03:09;10.10;99.90
32107;DHT22;18622;51.998;10.440;2023-02-21T05:05:37;10.00;99.90
32107;DHT22;18622;51.998;10.440;2023-02-21T05:08:05;10.00;99.90
32107;DHT22;18622;51.998;10.440;2023-02-21T05:10:33;10.00;99.90
32107;DHT22;18622;51.998;10.440;2023-02-21T05:13:00;10.00;99.90
32107;DHT22;18622;51.998;10.440;2023-02-21T05:15:28;9.90;99.90
32107;DHT22;18622;51.998;10.440;2023-02-21T05:17:56;10.00;99.90
32107;DHT22;18622;51.998;10.440;2023-02-21T05:20:24;9.90;99.90
32107;DHT22;18622;51.998;10.440;2023-02-21T05:22:52;9.90;99.90
32107;DHT22;18622;51.998;10.440;2023-02-21T05:25:21;9.90;99.90
32107;DHT22;18622;51.998;10.440;2023-02-21T05:27:50;9.90;99.90
32107;DHT22;18622;51.998;10.440;2023-02-21T05:30:21;10.00;99.90
32107;DHT22;18622;51.998;10.440;2023-02-21T05:32:51;10.00;99.90
32107;DHT22;18622;51.998;10.440;2023-02-21T05:35:19;10.10;99.90
32107;DHT22;18622;51.998;10.440;2023-02-21T05:37:47;10.10;99.90
32107;DHT22;18622;51.998;10.440;2023-02-21T05:40:15;10.30;99.90
32107;DHT22;18622;51.998;10.440;2023-02-21T05:42:43;10.30;99.90
32107;DHT22;18622;51.998;10.440;2023-02-21T05:45:11;10.30;99.90
32107;DHT22;18622;51.998;10.440;2023-02-21T05:47:38;10.40;99.90
32107;DHT22;18622;51.998;10.440;2023-02-21T05:50:06;10.40;99.90
32107;DHT22;18622;51.998;10.440;2023-02-21T05:52:34;10.40;99.90
32107;DHT22;18622;51.998;10.440;2023-02-21T05:55:02;10.40;99.90
32107;DHT22;18622;51.998;10.440;2023-02-21T05:57:30;10.40;99.90
32107;DHT22;18622;51.998;10.440;2023-02-21T05:59:58;10.40;99.90
32107;DHT22;18622;51.998;10.440;2023-02-21T06:02:25;10.30;99.90
32107;DHT22;18622;51.998;10.440;2023-02-21T06:04:53;10.20;99.90
32107;DHT22;18622;51.998;10.440;2023-02-21T06:07:21;10.20;99.90
32107;DHT22;18622;51.998;10.440;2023-02-21T06:09:49;10.10;99.90
32107;DHT22;18622;51.998;10.440;2023-02-21T06:12:16;10.10;99.90
32107;DHT22;18622;51.998;10.440;2023-02-21T06:14:44;10.00;99.90
32107;DHT22;18622;51.998;10.440;2023-02-21T06:17:12;10.00;99.90
32107;DHT22;18622;51.998;10.440;2023-02-21T06:19:40;9.90;99.90
32107;DHT22;18622;51.998;10.440;2023-02-21T06:22:08;9.90;99.90
32107;DHT22;18622;51.998;10.440;2023-02-21T06:24:35;9.90;99.90
32107;DHT22;18622;51.998;10.440;2023-02-21T06:27:03;9.90;99.90
32107;DHT22;18622;51.998;10.440;2023-02-21T06:29:31;9.80;99.90
32107;DHT22;18622;51.998;10.440;2023-02-21T15:52:55;13.30;96.60
32107;DHT22;18622;51.998;10.440;2023-02-21T15:55:28;13.20;96.50
32107;DHT22;18622;51.998;10.440;2023-02-21T16:00:35;13.10;97.00
32107;DHT22;18622;51.998;10.440;2023-02-21T16:03:41;13.00;97.40
32107;DHT22;18622;51.998;10.440;2023-02-21T16:06:29;13.00;97.40
32107;DHT22;18622;51.998;10.440;2023-02-21T16:09:06;12.90;97.60
32107;DHT22;18622;51.998;10.440;2023-02-21T16:11:42;12.80;97.80
32107;DHT22;18622;51.998;10.440;2023-02-21T16:19:36;12.70;98.30
32107;DHT22;18622;51.998;10.440;2023-02-21T16:24:46;12.70;98.70
32107;DHT22;18622;51.998;10.440;2023-02-21T16:27:16;12.60;98.90
32107;DHT22;18622;51.998;10.440;2023-02-21T16:29:44;12.60;99.00
32107;DHT22;18622;51.998;10.440;2023-02-21T16:32:17;12.60;99.20
32107;DHT22;18622;51.998;10.440;2023-02-21T16:34:45;12.50;99.30
32107;DHT22;18622;51.998;10.440;2023-02-21T16:37:14;12.50;99.50
32107;DHT22;18622;51.998;10.440;2023-02-21T16:39:42;12.50;99.70
32107;DHT22;18622;51.998;10.440;2023-02-21T16:42:10;12.50;99.90
32107;DHT22;18622;51.998;10.440;2023-02-21T16:44:38;12.50;99.90
32107;DHT22;18622;51.998;10.440;2023-02-21T16:47:06;12.50;99.90
32107;DHT22;18622;51.998;10.440;2023-02-21T16:49:34;12.50;99.90
32107;DHT22;18622;51.998;10.440;2023-02-21T16:52:02;12.50;99.90
32107;DHT22;18622;51.998;10.440;2023-02-21T16:54:30;12.50;99.90
32107;DHT22;18622;51.998;10.440;2023-02-21T16:56:57;12.50;99.90
32107;DHT22;18622;51.998;10.440;2023-02-21T16:59:25;12.50;99.90
32107;DHT22;18622;51.998;10.440;2023-02-21T17:01:53;12.40;99.90
32107;DHT22;18622;51.998;10.440;2023-02-21T17:04:23;12.40;99.90
32107;DHT22;18622;51.998;10.440;2023-02-21T17:07:03;12.30;99.90
32107;DHT22;18622;51.998;10.440;2023-02-21T17:09:28;12.30;99.90
32107;DHT22;18622;51.998;10.440;2023-02-21T17:11:57;12.20;99.90
32107;DHT22;18622;51.998;10.440;2023-02-21T17:14:26;12.20;99.90
32107;DHT22;18622;51.998;10.440;2023-02-21T17:16:54;12.20;99.90
32107;DHT22;18622;51.998;10.440;2023-02-21T17:19:21;12.10;99.90
32107;DHT22;18622;51.998;10.440;2023-02-21T17:21:50;12.10;99.90
32107;DHT22;18622;51.998;10.440;2023-02-21T17:24:18;12.00;99.90
32107;DHT22;18622;51.998;10.440;2023-02-21T17:26:46;12.00;99.90
32107;DHT22;18622;51.998;10.440;2023-02-21T17:29:14;12.00;99.90
32107;DHT22;18622;51.998;10.440;2023-02-21T17:31:41;12.00;99.90
32107;DHT22;18622;51.998;10.440;2023-02-21T17:34:11;12.00;99.90
32107;DHT22;18622;51.998;10.440;2023-02-21T17:36:39;12.00;99.90
32107;DHT22;18622;51.998;10.440;2023-02-21T17:39:07;12.00;99.90
32107;DHT22;18622;51.998;10.440;2023-02-21T17:41:35;12.00;99.90
32107;DHT22;18622;51.998;10.440;2023-02-21T17:44:03;11.90;99.90
32107;DHT22;18622;51.998;10.440;2023-02-21T17:46:30;11.90;99.90
32107;DHT22;18622;51.998;10.440;2023-02-21T17:48:58;11.90;99.90
32107;DHT22;18622;51.998;10.440;2023-02-21T17:51:26;11.90;99.90
32107;DHT22;18622;51.998;10.440;2023-02-21T17:53:54;11.90;99.90
32107;DHT22;18622;51.998;10.440;2023-02-21T17:56:23;11.80;99.90
32107;DHT22;18622;51.998;10.440;2023-02-21T17:58:51;11.80;99.90
32107;DHT22;18622;51.998;10.440;2023-02-21T18:01:20;11.80;99.90
32107;DHT22;18622;51.998;10.440;2023-02-21T18:03:48;11.80;99.90
32107;DHT22;18622;51.998;10.440;2023-02-21T18:06:16;11.80;99.90
32107;DHT22;18622;51.998;10.440;2023-02-21T18:08:44;11.80;99.90
32107;DHT22;18622;51.998;10.440;2023-02-21T18:11:14;11.80;99.90
32107;DHT22;18622;51.998;10.440;2023-02-21T18:13:42;11.80;99.90
32107;DHT22;18622;51.998;10.440;2023-02-21T18:16:09;11.80;99.90
32107;DHT22;18622;51.998;10.440;2023-02-21T18:18:37;11.70;99.90
32107;DHT22;18622;51.998;10.440;2023-02-21T18:21:05;11.70;99.90
32107;DHT22;18622;51.998;10.440;2023-02-21T18:23:34;11.70;99.90
32107;DHT22;18622;51.998;10.440;2023-02-21T18:26:04;11.70;99.90
32107;DHT22;18622;51.998;10.440;2023-02-21T18:28:31;11.70;99.90
32107;DHT22;18622;51.998;10.440;2023-02-21T18:30:59;11.70;99.90
32107;DHT22;18622;51.998;10.440;2023-02-21T18:33:27;11.60;99.90
32107;DHT22;18622;51.998;10.440;2023-02-21T18:35:56;11.60;99.90
32107;DHT22;18622;51.998;10.440;2023-02-21T18:38:26;11.60;99.90
32107;DHT22;18622;51.998;10.440;2023-02-21T18:40:54;11.70;99.90
32107;DHT22;18622;51.998;10.440;2023-02-21T18:43:25;11.70;99.90
32107;DHT22;18622;51.998;10.440;2023-02-21T18:45:55;11.60;99.90
32107;DHT22;18622;51.998;10.440;2023-02-21T18:48:25;11.60;99.90
32107;DHT22;18622;51.998;10.440;2023-02-21T18:50:53;11.60;99.90
32107;DHT22;18622;51.998;10.440;2023-02-21T18:53:21;11.60;99.90
32107;DHT22;18622;51.998;10.440;2023-02-21T18:55:49;11.60;99.90
32107;DHT22;18622;51.998;10.440;2023-02-21T18:58:17;11.60;99.90
32107;DHT22;18622;51.998;10.440;2023-02-21T19:00:44;11.60;99.90
32107;DHT22;18622;51.998;10.440;2023-02-21T19:03:12;11.60;99.90
32107;DHT22;18622;51.998;10.440;2023-02-21T19:05:40;11.60;99.90
32107;DHT22;18622;51.998;10.440;2023-02-21T19:08:08;11.60;99.90
32107;DHT22;18622;51.998;10.440;2023-02-21T19:10:36;11.60;99.90
32107;DHT22;18622;51.998;10.440;2023-02-21T19:13:04;11.60;99.90
32107;DHT22;18622;51.998;10.440;2023-02-21T19:15:31;11.60;99.90
32107;DHT22;18622;51.998;10.440;2023-02-21T19:18:00;11.50;99.90
32107;DHT22;18622;51.998;10.440;2023-02-21T19:20:28;11.50;99.90
32107;DHT22;18622;51.998;10.440;2023-02-21T19:22:55;11.50;99.90
32107;DHT22;18622;51.998;10.440;2023-02-21T19:25:24;11.50;99.90
32107;DHT22;18622;51.998;10.440;2023-02-21T19:27:54;11.50;99.90
32107;DHT22;18622;51.998;10.440;2023-02-21T19:30:32;11.40;99.90
32107;DHT22;18622;51.998;10.440;2023-02-21T19:33:04;11.40;99.90
32107;DHT22;18622;51.998;10.440;2023-02-21T19:35:34;11.40;99.90
32107;DHT22;18622;51.998;10.440;2023-02-21T19:38:04;11.40;99.90
32107;DHT22;18622;51.998;10.440;2023-02-21T19:40:33;11.40;99.90
32107;DHT22;18622;51.998;10.440;2023-02-21T19:43:01;11.30;99.90
32107;DHT22;18622;51.998;10.440;2023-02-21T19:45:29;11.40;99.90
32107;DHT22;18622;51.998;10.440;2023-02-21T19:47:58;11.30;99.90
32107;DHT22;18622;51.998;10.440;2023-02-21T19:50:25;11.40;99.90
32107;DHT22;18622;51.998;10.440;2023-02-21T19:52:56;11.30;99.90
32107;DHT22;18622;51.998;10.440;2023-02-21T19:55:26;11.30;99.90
32107;DHT22;18622;51.998;10.440;2023-02-21T19:57:54;11.30;99.90
32107;DHT22;18622;51.998;10.440;2023-02-21T20:00:23;11.30;99.90
32107;DHT22;18622;51.998;10.440;2023-02-21T20:02:52;11.30;99.90
32107;DHT22;18622;51.998;10.440;2023-02-21T20:05:20;11.30;99.90
32107;DHT22;18622;51.998;10.440;2023-02-21T20:07:48;11.30;99.90
32107;DHT22;18622;51.998;10.440;2023-02-21T20:10:16;11.30;99.90
32107;DHT22;18622;51.998;10.440;2023-02-21T20:12:45;11.30;99.90
32107;DHT22;18622;51.998;10.440;2023-02-21T20:15:13;11.30;99.90
32107;DHT22;18622;51.998;10.440;2023-02-21T20:17:41;11.30;99.90
32107;DHT22;18622;51.998;10.440;2023-02-21T20:20:09;11.30;99.90
32107;DHT22;18622;51.998;10.440;2023-02-21T20:22:38;11.30;99.90
32107;DHT22;18622;51.998;10.440;2023-02-21T20:25:06;11.30;99.90
32107;DHT22;18622;51.998;10.440;2023-02-21T20:27:34;11.30;99.90
32107;DHT22;18622;51.998;10.440;2023-02-21T20:30:04;11.30;99.90
32107;DHT22;18622;51.998;10.440;2023-02-21T20:32:32;11.30;99.90
32107;DHT22;18622;51.998;10.440;2023-02-21T20:35:00;11.30;99.90
32107;DHT22;18622;51.998;10.440;2023-02-21T20:37:27;11.30;99.90
32107;DHT22;18622;51.998;10.440;2023-02-21T20:39:57;11.30;99.90
32107;DHT22;18622;51.998;10.440;2023-02-21T20:42:25;11.30;99.90
32107;DHT22;18622;51.998;10.440;2023-02-21T20:44:53;11.30;99.90
32107;DHT22;18622;51.998;10.440;2023-02-21T20:47:21;11.30;99.90
32107;DHT22;18622;51.998;10.440;2023-02-21T20:49:49;11.30;99.90
32107;DHT22;18622;51.998;10.440;2023-02-21T20:52:17;11.30;99.90
32107;DHT22;18622;51.998;10.440;2023-02-21T20:54:45;11.30;99.90
32107;DHT22;18622;51.998;10.440;2023-02-21T20:57:12;11.30;99.90
32107;DHT22;18622;51.998;10.440;2023-02-21T20:59:40;11.30;99.90
32107;DHT22;18622;51.998;10.440;2023-02-21T21:02:08;11.30;99.90
32107;DHT22;18622;51.998;10.440;2023-02-21T21:04:39;11.30;99.90
32107;DHT22;18622;51.998;10.440;2023-02-21T21:07:11;11.30;99.90
32107;DHT22;18622;51.998;10.440;2023-02-21T21:09:39;11.30;99.90
32107;DHT22;18622;51.998;10.440;2023-02-21T21:12:10;11.20;99.90
32107;DHT22;18622;51.998;10.440;2023-02-21T21:14:41;11.20;99.90
32107;DHT22;18622;51.998;10.440;2023-02-21T21:17:10;11.20;99.90
32107;DHT22;18622;51.998;10.440;2023-02-21T21:19:41;11.20;99.90
32107;DHT22;18622;51.998;10.440;2023-02-21T21:22:12;11.20;99.90
32107;DHT22;18622;51.998;10.440;2023-02-21T21:24:39;11.10;99.90
32107;DHT22;18622;51.998;10.440;2023-02-21T21:27:08;11.10;99.90
32107;DHT22;18622;51.998;10.440;2023-02-21T21:29:38;11.10;99.90
32107;DHT22;18622;51.998;10.440;2023-02-21T21:32:11;11.10;99.90
32107;DHT22;18622;51.998;10.440;2023-02-21T21:34:43;11.10;99.90
32107;DHT22;18622;51.998;10.440;2023-02-21T21:37:12;11.10;99.90
32107;DHT22;18622;51.998;10.440;2023-02-21T21:39:48;11.10;99.90
32107;DHT22;18622;51.998;10.440;2023-02-21T21:42:17;11.10;99.90
32107;DHT22;18622;51.998;10.440;2023-02-21T21:44:47;11.10;99.90
